Startpagina
METAR-TAF:

METAR-TAF

Vliegvelden :

Internationale Luchthaven Baghdad

Bagdad, Irak

breedte: 33-15-45N, lengte: 44-14-04E, hoogte: 35 m

Actueel weer

Dit bericht is 41 minuten geleden gemaakt, om 19:00 UTC
Wind 5 kt uit het oosten
Temperatuur 11°C
Vochtigheid 66%
Druk 1019 hPa
Zicht: 6000 m

METAR: ORBI 281900Z 10005KT 6000 NSC 11/05 Q1019 NOSIG

Tijdstip: 22:41 (19:41 UTC)

Verwachting

Dit bericht is 3 uur en het 41 minuten geleden gemaakt, om 16:00 UTC
Verwachting geldig van 28 om 18 UTC tot 29 om 18 UTC
Wind 10 kt uit het zuidwesten
Zicht: 7000 m

TAF: ORBI 281600Z 2818/2918 22010KT 7000 NSC

Waarnemingen en weersverwachtingen van meer dan 4000 vliegvelden (METAR en TAF).

De beschikbare stations zijn de gele en rode punten op de kaart.

Ga met uw muis naar het station om de naam te zien.

Klik dan om waarnemingen en weersverwachtingen te zien.

kaart wijzigen: klik op de groene knoppen met een zwart kruis om in te zoomen, op de groene knop met een streepje om uit te zoomen of op de groene pijlen voor aangrenzende kaarten.


METAR-TAF: